As Suwayq — V7XU8 — position and weather

sailwx.info

Track history (hours):
 
Tides and Currents Weather Stations Pressure Air Temp Water Temp Dewpoint Dewpoint Depression Visibility Wind Speed Wind Dir Waves Ship Positions

As Suwayq

Last reported at 2014-Sep-18 17:33 UTC. Time now 2014-Sep-18 17:41 UTC.
Position N 36°40' W 023°52'.

Length 333 m; draft 21.7 m.

Type: Tanker. MMSI: 538004576.

Date/timePositionNaut miles runAvg speedWind from/ knotsBaromVisibWave heightAir tempDewpointWater temp
2014-Sep-18 17:33N 36°40' W 023°52'10 9.7
2014-Sep-18 16:33N 36°40' W 023°40'10 9.9
2014-Sep-18 15:30N 36°40' W 023°27'11 9.7
2014-Sep-18 14:20N 36°40' W 023°12'7 9.3
2014-Sep-18 13:32N 36°40' W 023°03'9 9.1
2014-Sep-18 12:31N 36°40' W 022°52'  
2014-Sep-14 13:28N 35°59' W 005°28'6 6.7
2014-Sep-14 12:33N 36°01' W 005°21'166 8.3
2014-Sep-13 16:28N 36°15' W 001°55'18 9.6
2014-Sep-13 14:33N 36°19' W 001°33'10 9.9
2014-Sep-13 13:33N 36°21' W 001°21'12 9.8
2014-Sep-13 12:23N 36°24' W 001°07'8 9.3
2014-Sep-13 11:33N 36°25' W 000°58'9 9.5
2014-Sep-13 10:33N 36°27' W 000°46'10 9.5
2014-Sep-13 09:33N 36°29' W 000°35'10 9.5
2014-Sep-13 08:30N 36°31' W 000°22'9 9.9
2014-Sep-13 07:33N 36°32' W 000°11'1010.0
2014-Sep-13 06:33N 36°34' E 000°01'10 9.7
2014-Sep-13 05:33N 36°36' E 000°13'9 9.3
2014-Sep-13 04:33N 36°38' E 000°24'9 9.2
2014-Sep-13 03:33N 36°40' E 000°36'9 9.3
2014-Sep-13 02:33N 36°42' E 000°47'9 9.1
2014-Sep-13 01:32N 36°43' E 000°58'9 8.9
2014-Sep-13 00:32N 36°46' E 001°09'9 9.0
2014-Sep-12 23:33N 36°47' E 001°20'9 9.1
2014-Sep-12 22:33N 36°50' E 001°31'9 9.2
2014-Sep-12 21:33N 36°52' E 001°42'9 9.4
2014-Sep-12 20:33N 36°54' E 001°54'10 9.8
2014-Sep-12 19:33N 36°55' E 002°06'1010.0
2014-Sep-12 18:33N 36°57' E 002°18'10 9.9
2014-Sep-12 17:30N 36°59' E 002°31'9 9.6
2014-Sep-12 16:33N 37°01' E 002°42'9 9.4
2014-Sep-12 15:33N 37°03' E 002°54'9 9.2
2014-Sep-12 14:33N 37°04' E 003°05'9 8.7
2014-Sep-12 13:33N 37°05' E 003°16'8 8.2
2014-Sep-12 12:33N 37°06' E 003°26'78 9.6
2014-Sep-12 04:24N 37°18' E 005°03'910.3
2014-Sep-12 03:33N 37°19' E 005°14'1110.2
2014-Sep-12 02:31N 37°20' E 005°27'7210.2
2014-Sep-11 19:26N 37°30' E 006°57'910.1
2014-Sep-11 18:33N 37°32' E 007°08'1210.0
2014-Sep-11 17:24N 37°33' E 007°22'61 9.8
2014-Sep-11 11:11N 37°42' E 008°38'610.2
2014-Sep-11 10:33N 37°42' E 008°46'1010.0
2014-Sep-11 09:33N 37°44' E 008°59'1010.1
2014-Sep-11 08:33N 37°45' E 009°12'1010.0
2014-Sep-11 07:33N 37°44' E 009°24'10 9.9
2014-Sep-11 06:33N 37°44' E 009°37'10 9.7
2014-Sep-11 05:33N 37°43' E 009°49'9 9.5
2014-Sep-11 04:33N 37°42' E 010°01'9 9.4
2014-Sep-11 03:33N 37°42' E 010°13'9 9.1
2014-Sep-11 02:33N 37°42' E 010°24'13 9.0
2014-Sep-11 01:08N 37°40' E 010°40'69 9.8
2014-Sep-10 18:06N 37°07' E 011°56'1510.1
2014-Sep-10 16:33N 36°59' E 012°13'1010.1
2014-Sep-10 15:33N 36°55' E 012°24'1010.3
2014-Sep-10 14:33N 36°50' E 012°36'1010.2
2014-Sep-10 13:34N 36°47' E 012°48'1010.2
2014-Sep-10 12:33N 36°43' E 012°60'1010.4
2014-Sep-10 11:34N 36°39' E 013°12'1010.0
2014-Sep-10 10:33N 36°36' E 013°23'10 9.1
2014-Sep-10 09:31N 36°32' E 013°34'9 9.2
2014-Sep-10 08:33N 36°29' E 013°45'9 9.2
2014-Sep-10 07:33N 36°26' E 013°55'9 9.4
2014-Sep-10 06:33N 36°22' E 014°06'10 9.8
2014-Sep-10 05:34N 36°19' E 014°17'1010.1
2014-Sep-10 04:33N 36°15' E 014°29'1010.2
2014-Sep-10 03:33N 36°11' E 014°41'10 9.9
2014-Sep-10 02:34N 36°08' E 014°52'10 9.6
2014-Sep-10 01:34N 36°04' E 015°03'10 9.5
2014-Sep-10 00:33N 36°00' E 015°14'14 9.8
2014-Sep-09 23:06N 35°56' E 015°31'710.3
2014-Sep-09 22:28N 35°53' E 015°38'  
Track history (hours):
 
Tides and Currents Weather Stations Pressure Air Temp Water Temp Dewpoint Dewpoint Depression Visibility Wind Speed Wind Dir Waves Ship Positions

As Suwayq

Last reported at 2014-Sep-18 17:33 UTC. Time now 2014-Sep-18 17:41 UTC.
Position N 36°40' W 023°52'.

Length 333 m; draft 21.7 m.

Type: Tanker. MMSI: 538004576.

Date/timePositionNaut miles runAvg speedWind from/ knotsBaromVisibWave heightAir tempDewpointWater temp
2014-Sep-18 17:33N 36°40' W 023°52'10 9.7
2014-Sep-18 16:33N 36°40' W 023°40'10 9.9
2014-Sep-18 15:30N 36°40' W 023°27'11 9.7
2014-Sep-18 14:20N 36°40' W 023°12'7 9.3
2014-Sep-18 13:32N 36°40' W 023°03'9 9.1
2014-Sep-18 12:31N 36°40' W 022°52'  
2014-Sep-14 13:28N 35°59' W 005°28'6 6.7
2014-Sep-14 12:33N 36°01' W 005°21'166 8.3
2014-Sep-13 16:28N 36°15' W 001°55'18 9.6
2014-Sep-13 14:33N 36°19' W 001°33'10 9.9
2014-Sep-13 13:33N 36°21' W 001°21'12 9.8
2014-Sep-13 12:23N 36°24' W 001°07'8 9.3
2014-Sep-13 11:33N 36°25' W 000°58'9 9.5
2014-Sep-13 10:33N 36°27' W 000°46'10 9.5
2014-Sep-13 09:33N 36°29' W 000°35'10 9.5
2014-Sep-13 08:30N 36°31' W 000°22'9 9.9
2014-Sep-13 07:33N 36°32' W 000°11'1010.0
2014-Sep-13 06:33N 36°34' E 000°01'10 9.7
2014-Sep-13 05:33N 36°36' E 000°13'9 9.3
2014-Sep-13 04:33N 36°38' E 000°24'9 9.2
2014-Sep-13 03:33N 36°40' E 000°36'9 9.3
2014-Sep-13 02:33N 36°42' E 000°47'9 9.1
2014-Sep-13 01:32N 36°43' E 000°58'9 8.9
2014-Sep-13 00:32N 36°46' E 001°09'9 9.0
2014-Sep-12 23:33N 36°47' E 001°20'9 9.1
2014-Sep-12 22:33N 36°50' E 001°31'9 9.2
2014-Sep-12 21:33N 36°52' E 001°42'9 9.4
2014-Sep-12 20:33N 36°54' E 001°54'10 9.8
2014-Sep-12 19:33N 36°55' E 002°06'1010.0
2014-Sep-12 18:33N 36°57' E 002°18'10 9.9
2014-Sep-12 17:30N 36°59' E 002°31'9 9.6
2014-Sep-12 16:33N 37°01' E 002°42'9 9.4
2014-Sep-12 15:33N 37°03' E 002°54'9 9.2
2014-Sep-12 14:33N 37°04' E 003°05'9 8.7
2014-Sep-12 13:33N 37°05' E 003°16'8 8.2
2014-Sep-12 12:33N 37°06' E 003°26'78 9.6
2014-Sep-12 04:24N 37°18' E 005°03'910.3
2014-Sep-12 03:33N 37°19' E 005°14'1110.2
2014-Sep-12 02:31N 37°20' E 005°27'7210.2
2014-Sep-11 19:26N 37°30' E 006°57'910.1
2014-Sep-11 18:33N 37°32' E 007°08'1210.0
2014-Sep-11 17:24N 37°33' E 007°22'61 9.8
2014-Sep-11 11:11N 37°42' E 008°38'610.2
2014-Sep-11 10:33N 37°42' E 008°46'1010.0
2014-Sep-11 09:33N 37°44' E 008°59'1010.1
2014-Sep-11 08:33N 37°45' E 009°12'1010.0
2014-Sep-11 07:33N 37°44' E 009°24'10 9.9
2014-Sep-11 06:33N 37°44' E 009°37'10 9.7
2014-Sep-11 05:33N 37°43' E 009°49'9 9.5
2014-Sep-11 04:33N 37°42' E 010°01'9 9.4
2014-Sep-11 03:33N 37°42' E 010°13'9 9.1
2014-Sep-11 02:33N 37°42' E 010°24'13 9.0
2014-Sep-11 01:08N 37°40' E 010°40'69 9.8
2014-Sep-10 18:06N 37°07' E 011°56'1510.1
2014-Sep-10 16:33N 36°59' E 012°13'1010.1
2014-Sep-10 15:33N 36°55' E 012°24'1010.3
2014-Sep-10 14:33N 36°50' E 012°36'1010.2
2014-Sep-10 13:34N 36°47' E 012°48'1010.2
2014-Sep-10 12:33N 36°43' E 012°60'1010.4
2014-Sep-10 11:34N 36°39' E 013°12'1010.0
2014-Sep-10 10:33N 36°36' E 013°23'10 9.1
2014-Sep-10 09:31N 36°32' E 013°34'9 9.2
2014-Sep-10 08:33N 36°29' E 013°45'9 9.2
2014-Sep-10 07:33N 36°26' E 013°55'9 9.4
2014-Sep-10 06:33N 36°22' E 014°06'10 9.8
2014-Sep-10 05:34N 36°19' E 014°17'1010.1
2014-Sep-10 04:33N 36°15' E 014°29'1010.2
2014-Sep-10 03:33N 36°11' E 014°41'10 9.9
2014-Sep-10 02:34N 36°08' E 014°52'10 9.6
2014-Sep-10 01:34N 36°04' E 015°03'10 9.5
2014-Sep-10 00:33N 36°00' E 015°14'14 9.8
2014-Sep-09 23:06N 35°56' E 015°31'710.3
2014-Sep-09 22:28N 35°53' E 015°38'  

Dump ship's entire track history